KJXN/JXN METAR and TAF weather

Enter ICAO airport designator
Station Type Date Time Source
KJXN METAR 2020/04/05 11:56 UTC NOAA

KJXN 051156Z 32007KT 10SM OVC004 02/01 A3016 RMK AO2 SLP220 70003 T00220011 10050 20022 53017


Station Type Date Time Source
KJXN Decoded METAR 2020/04/05 11:56 UTC NOAA

JACKSON COUNTY-REYNOLDS, MI, United States (KJXN) 42-16N 084-28W
Apr 05, 2020 - 07:56 AM EDT / 2020.04.05 1156 UTC
Wind: from the NW (320 degrees) at 8 MPH (7 KT):0
Visibility: 10 mile(s):0
Sky conditions: overcast
Temperature: 36.0 F (2.2 C)
Dew Point: 34.0 F (1.1 C)
Relative Humidity: 92%
Pressure (altimeter): 30.16 in. Hg (1021 hPa)
Pressure tendency: 0.05 inches (1.7 hPa) higher than three hours ago
ob: KJXN 051156Z 32007KT 10SM OVC004 02/01 A3016 RMK AO2 SLP220 70003 T00220011 10050 20022 53017
cycle: 12

Station Type Date Time Source
KJXN TAF 2020/04/05 12:27 UTC NOAA

TAF KJXN 051125Z 0512/0612 01007KT P6SM OVC004
FM051330 35008KT P6SM OVC008
FM051500 36004KT P6SM OVC015
FM051630 03006KT P6SM SCT080

Example: see airport list